Time,TemperatureF,DewpointF,PressureIn,WindDirection,WindDirectionDegrees,WindSpeedMPH,WindSpeedGustMPH,Humidity,HourlyPrecipIn,Conditions,Clouds,dailyrainin,SoftwareType,DateUTC
2013-11-16 00:03:00,56.8,55.0,29.82,SE,138,1.0,7.0,92,0.00,,,0.00,weatherlink.com 1.10,2013-11-16 06:03:00,
2013-11-16 00:18:00,57.6,55.0,29.81,SE,140,2.0,5.0,91,0.00,,,0.00,weatherlink.com 1.10,2013-11-16 06:18:00,
2013-11-16 00:33:00,58.1,56.0,29.80,SE,127,0.0,4.0,91,0.00,,,0.00,weatherlink.com 1.10,2013-11-16 06:33:00,
2013-11-16 00:48:00,59.5,57.0,29.80,SE,143,4.0,9.0,91,0.00,,,0.00,weatherlink.com 1.10,2013-11-16 06:48:00,
2013-11-16 01:04:00,60.9,57.0,29.80,SSE,157,4.0,12.0,88,0.00,,,0.00,weatherlink.com 1.10,2013-11-16 07:04:00,
2013-11-16 01:19:00,61.2,57.0,29.80,SSE,150,4.0,8.0,87,0.00,,,0.00,weatherlink.com 1.10,2013-11-16 07:19:00,
2013-11-16 01:34:00,61.1,57.0,29.80,SW,222,0.0,10.0,87,0.00,,,0.00,weatherlink.com 1.10,2013-11-16 07:34:00,
2013-11-16 01:49:00,60.9,57.0,29.79,ESE,120,3.0,9.0,87,0.00,,,0.00,weatherlink.com 1.10,2013-11-16 07:49:00,
2013-11-16 02:04:00,60.9,57.0,29.78,South,170,1.0,10.0,87,0.00,,,0.00,weatherlink.com 1.10,2013-11-16 08:04:00,
2013-11-16 02:19:00,61.0,57.0,29.78,SSE,155,5.0,10.0,87,0.00,,,0.00,weatherlink.com 1.10,2013-11-16 08:19:00,
2013-11-16 02:34:00,61.2,57.0,29.78,SSW,210,1.0,10.0,87,0.00,,,0.00,weatherlink.com 1.10,2013-11-16 08:34:00,
2013-11-16 02:49:00,61.3,58.0,29.77,WSW,256,9.0,9.0,88,0.00,,,0.00,weatherlink.com 1.10,2013-11-16 08:49:00,
2013-11-16 03:04:00,61.1,58.0,29.77,South,187,2.0,12.0,88,0.00,,,0.00,weatherlink.com 1.10,2013-11-16 09:04:00,
2013-11-16 03:19:00,60.9,57.0,29.77,SSE,152,3.0,8.0,88,0.00,,,0.00,weatherlink.com 1.10,2013-11-16 09:19:00,
2013-11-16 03:34:00,60.7,58.0,29.76,South,191,1.0,10.0,89,0.00,,,0.00,weatherlink.com 1.10,2013-11-16 09:34:00,
2013-11-16 03:49:00,60.8,57.0,29.77,SE,145,3.0,9.0,88,0.00,,,0.00,weatherlink.com 1.10,2013-11-16 09:49:00,
2013-11-16 04:04:00,60.7,58.0,29.77,ESE,116,4.0,11.0,89,0.00,,,0.00,weatherlink.com 1.10,2013-11-16 10:04:00,
2013-11-16 04:19:00,60.6,57.0,29.76,SSW,207,4.0,10.0,89,0.00,,,0.00,weatherlink.com 1.10,2013-11-16 10:19:00,
2013-11-16 04:34:00,60.8,57.0,29.76,SSE,167,1.0,11.0,88,0.00,,,0.00,weatherlink.com 1.10,2013-11-16 10:34:00,
2013-11-16 04:49:00,60.7,57.0,29.76,SW,221,3.0,12.0,88,0.00,,,0.00,weatherlink.com 1.10,2013-11-16 10:49:00,
2013-11-16 05:04:00,60.8,57.0,29.75,SE,132,7.0,12.0,88,0.00,,,0.00,weatherlink.com 1.10,2013-11-16 11:04:00,
2013-11-16 05:19:00,61.1,57.0,29.75,SW,215,3.0,13.0,87,0.00,,,0.00,weatherlink.com 1.10,2013-11-16 11:19:00,
2013-11-16 05:34:00,60.9,57.0,29.75,SSE,167,4.0,11.0,87,0.00,,,0.00,weatherlink.com 1.10,2013-11-16 11:34:00,
2013-11-16 05:49:00,60.8,57.0,29.75,SSE,167,9.0,15.0,88,0.00,,,0.00,weatherlink.com 1.10,2013-11-16 11:49:00,
2013-11-16 06:04:00,60.6,57.0,29.77,SSW,210,5.0,10.0,89,0.00,,,0.00,weatherlink.com 1.10,2013-11-16 12:04:00,
2013-11-16 06:19:00,60.6,57.0,29.76,SSE,152,4.0,13.0,89,0.00,,,0.00,weatherlink.com 1.10,2013-11-16 12:19:00,
2013-11-16 06:34:00,60.6,57.0,29.76,WSW,238,3.0,8.0,89,0.00,,,0.00,weatherlink.com 1.10,2013-11-16 12:34:00,
2013-11-16 06:49:00,60.6,57.0,29.77,SSE,153,6.0,11.0,89,0.00,,,0.00,weatherlink.com 1.10,2013-11-16 12:49:00,
2013-11-16 07:04:00,60.6,57.0,29.77,SW,223,8.0,9.0,89,0.00,,,0.00,weatherlink.com 1.10,2013-11-16 13:04:00,
2013-11-16 07:19:00,60.8,58.0,29.78,SE,136,3.0,10.0,89,0.00,,,0.00,weatherlink.com 1.10,2013-11-16 13:19:00,
2013-11-16 07:34:00,61.2,58.0,29.78,South,184,7.0,16.0,88,0.00,,,0.00,weatherlink.com 1.10,2013-11-16 13:34:00,
2013-11-16 07:49:00,61.4,58.0,29.78,SSW,194,6.0,14.0,87,0.00,,,0.00,weatherlink.com 1.10,2013-11-16 13:49:00,
2013-11-16 08:04:00,61.5,58.0,29.78,SSE,160,4.0,13.0,87,0.00,,,0.00,weatherlink.com 1.10,2013-11-16 14:04:00,
2013-11-16 08:19:00,61.6,58.0,29.79,South,191,4.0,16.0,87,0.00,,,0.00,weatherlink.com 1.10,2013-11-16 14:19:00,
2013-11-16 08:34:00,61.6,58.0,29.79,SW,226,6.0,13.0,87,0.00,,,0.00,weatherlink.com 1.10,2013-11-16 14:34:00,
2013-11-16 08:49:00,61.2,58.0,29.79,South,191,4.0,10.0,88,0.00,,,0.00,weatherlink.com 1.10,2013-11-16 14:49:00,
2013-11-16 09:04:00,61.2,58.0,29.78,South,175,5.0,9.0,88,0.00,,,0.00,weatherlink.com 1.10,2013-11-16 15:04:00,
2013-11-16 09:19:00,61.5,58.0,29.80,SSE,156,2.0,10.0,88,0.00,,,0.00,weatherlink.com 1.10,2013-11-16 15:19:00,
2013-11-16 09:35:00,60.8,58.0,29.77,SW,215,7.0,12.0,90,0.02,,,0.02,weatherlink.com 1.10,2013-11-16 15:35:00,
2013-11-16 09:49:00,60.5,58.0,29.73,SW,218,12.0,20.0,91,0.04,,,0.04,weatherlink.com 1.10,2013-11-16 15:49:00,
2013-11-16 10:04:00,60.9,59.0,29.74,South,171,3.0,14.0,92,0.04,,,0.04,weatherlink.com 1.10,2013-11-16 16:04:00,
2013-11-16 10:19:00,61.6,59.0,29.75,SE,137,3.0,18.0,91,0.04,,,0.04,weatherlink.com 1.10,2013-11-16 16:19:00,
2013-11-16 10:34:00,62.3,59.0,29.75,SE,139,9.0,16.0,90,0.02,,,0.04,weatherlink.com 1.10,2013-11-16 16:34:00,
2013-11-16 10:49:00,63.7,60.0,29.75,SSW,205,8.0,12.0,88,0.00,,,0.04,weatherlink.com 1.10,2013-11-16 16:49:00,
2013-11-16 11:04:00,64.3,60.0,29.75,SSW,212,3.0,11.0,86,0.00,,,0.04,weatherlink.com 1.10,2013-11-16 17:04:00,
2013-11-16 11:19:00,66.3,61.0,29.74,SW,220,8.0,12.0,82,0.00,,,0.04,weatherlink.com 1.10,2013-11-16 17:19:00,
2013-11-16 11:34:00,68.6,61.0,29.72,SW,217,11.0,16.0,77,0.00,,,0.04,weatherlink.com 1.10,2013-11-16 17:34:00,
2013-11-16 11:50:00,70.4,61.0,29.72,SW,236,10.0,18.0,73,0.00,,,0.04,weatherlink.com 1.10,2013-11-16 17:50:00,
2013-11-16 12:05:00,71.6,62.0,29.71,SSE,165,8.0,17.0,71,0.00,,,0.04,weatherlink.com 1.10,2013-11-16 18:05:00,
2013-11-16 12:20:00,72.7,62.0,29.69,South,184,5.0,18.0,68,0.00,,,0.04,weatherlink.com 1.10,2013-11-16 18:20:00,
2013-11-16 12:35:00,73.5,61.0,29.69,SSW,211,8.0,17.0,66,0.00,,,0.04,weatherlink.com 1.10,2013-11-16 18:35:00,
2013-11-16 12:50:00,73.6,61.0,29.67,SSW,195,4.0,17.0,65,0.01,,,0.05,weatherlink.com 1.10,2013-11-16 18:50:00,
2013-11-16 13:05:00,73.5,60.0,29.66,SW,236,10.0,16.0,63,0.01,,,0.05,weatherlink.com 1.10,2013-11-16 19:05:00,
2013-11-16 13:20:00,73.7,60.0,29.65,SW,217,10.0,21.0,62,0.01,,,0.05,weatherlink.com 1.10,2013-11-16 19:20:00,
2013-11-16 13:35:00,74.5,60.0,29.64,ESE,106,7.0,18.0,60,0.01,,,0.05,weatherlink.com 1.10,2013-11-16 19:35:00,
2013-11-16 13:50:00,74.5,60.0,29.64,SW,232,9.0,16.0,60,0.00,,,0.05,weatherlink.com 1.10,2013-11-16 19:50:00,
2013-11-16 14:05:00,74.6,60.0,29.63,SSW,200,7.0,14.0,61,0.00,,,0.05,weatherlink.com 1.10,2013-11-16 20:05:00,
2013-11-16 14:20:00,74.8,60.0,29.63,WSW,240,9.0,16.0,60,0.00,,,0.05,weatherlink.com 1.10,2013-11-16 20:20:00,
2013-11-16 14:35:00,75.3,60.0,29.62,SE,134,5.0,15.0,60,0.00,,,0.05,weatherlink.com 1.10,2013-11-16 20:35:00,
2013-11-16 14:50:00,75.7,60.0,29.62,WSW,238,8.0,21.0,59,0.00,,,0.05,weatherlink.com 1.10,2013-11-16 20:50:00,
2013-11-16 15:06:00,75.8,60.0,29.61,SE,129,4.0,14.0,59,0.00,,,0.05,weatherlink.com 1.10,2013-11-16 21:06:00,
2013-11-16 15:20:00,75.4,60.0,29.61,WSW,253,8.0,15.0,59,0.00,,,0.05,weatherlink.com 1.10,2013-11-16 21:20:00,
2013-11-16 15:35:00,74.9,60.0,29.60,South,169,12.0,21.0,60,0.00,,,0.05,weatherlink.com 1.10,2013-11-16 21:35:00,
2013-11-16 15:50:00,75.5,60.0,29.59,SE,140,4.0,19.0,59,0.00,,,0.05,weatherlink.com 1.10,2013-11-16 21:50:00,
2013-11-16 16:05:00,75.5,60.0,29.60,SE,137,14.0,15.0,59,0.00,,,0.05,weatherlink.com 1.10,2013-11-16 22:05:00,
2013-11-16 16:20:00,75.0,61.0,29.60,South,169,5.0,19.0,62,0.00,,,0.05,weatherlink.com 1.10,2013-11-16 22:20:00,
2013-11-16 16:35:00,74.2,61.0,29.60,SSE,153,3.0,16.0,63,0.00,,,0.05,weatherlink.com 1.10,2013-11-16 22:35:00,
2013-11-16 16:50:00,73.3,61.0,29.60,SSE,148,5.0,15.0,66,0.00,,,0.05,weatherlink.com 1.10,2013-11-16 22:50:00,
2013-11-16 17:05:00,72.6,61.0,29.59,SE,142,5.0,13.0,68,0.00,,,0.05,weatherlink.com 1.10,2013-11-16 23:05:00,
2013-11-16 17:20:00,71.7,62.0,29.60,SE,129,4.0,10.0,71,0.00,,,0.05,weatherlink.com 1.10,2013-11-16 23:20:00,
2013-11-16 17:35:00,70.7,62.0,29.59,SSE,150,7.0,13.0,74,0.00,,,0.05,weatherlink.com 1.10,2013-11-16 23:35:00,
2013-11-16 17:50:00,70.5,62.0,29.61,SE,131,5.0,10.0,75,0.00,,,0.05,weatherlink.com 1.10,2013-11-16 23:50:00,
2013-11-16 18:05:00,70.3,62.0,29.61,SE,131,8.0,8.0,76,0.00,,,0.05,weatherlink.com 1.10,2013-11-17 00:05:00,
2013-11-16 18:20:00,69.9,62.0,29.62,SE,140,3.0,10.0,76,0.00,,,0.05,weatherlink.com 1.10,2013-11-17 00:20:00,
2013-11-16 18:35:00,69.9,62.0,29.62,South,188,3.0,9.0,76,0.00,,,0.05,weatherlink.com 1.10,2013-11-17 00:35:00,
2013-11-16 18:50:00,69.5,62.0,29.62,SSE,167,1.0,7.0,76,0.00,,,0.05,weatherlink.com 1.10,2013-11-17 00:50:00,
2013-11-16 19:05:00,69.4,62.0,29.62,South,173,4.0,13.0,77,0.00,,,0.05,weatherlink.com 1.10,2013-11-17 01:05:00,
2013-11-16 19:20:00,69.7,62.0,29.62,SSE,152,8.0,12.0,76,0.00,,,0.05,weatherlink.com 1.10,2013-11-17 01:20:00,
2013-11-16 19:35:00,69.7,62.0,29.62,SE,130,5.0,15.0,77,0.00,,,0.05,weatherlink.com 1.10,2013-11-17 01:35:00,
2013-11-16 19:50:00,69.7,62.0,29.62,SE,130,8.0,15.0,77,0.00,,,0.05,weatherlink.com 1.10,2013-11-17 01:50:00,
2013-11-16 20:05:00,70.0,63.0,29.61,SSE,152,3.0,19.0,77,0.00,,,0.05,weatherlink.com 1.10,2013-11-17 02:05:00,
2013-11-16 20:21:00,70.2,63.0,29.61,SSE,160,4.0,17.0,78,0.00,,,0.05,weatherlink.com 1.10,2013-11-17 02:21:00,
2013-11-16 20:35:00,70.1,63.0,29.62,SE,136,5.0,16.0,79,0.00,,,0.05,weatherlink.com 1.10,2013-11-17 02:35:00,
2013-11-16 20:50:00,69.8,63.0,29.62,South,187,7.0,18.0,80,0.00,,,0.05,weatherlink.com 1.10,2013-11-17 02:50:00,
2013-11-16 21:05:00,69.5,63.0,29.61,SSE,161,9.0,17.0,81,0.00,,,0.05,weatherlink.com 1.10,2013-11-17 03:05:00,
2013-11-16 21:20:00,69.2,64.0,29.62,SSE,159,8.0,23.0,82,0.00,,,0.05,weatherlink.com 1.10,2013-11-17 03:20:00,
2013-11-16 21:35:00,69.0,64.0,29.62,SE,145,6.0,12.0,83,0.00,,,0.05,weatherlink.com 1.10,2013-11-17 03:35:00,
2013-11-16 21:50:00,68.9,64.0,29.63,South,187,4.0,14.0,83,0.00,,,0.05,weatherlink.com 1.10,2013-11-17 03:50:00,
2013-11-16 22:06:00,69.1,64.0,29.62,SSE,150,6.0,16.0,83,0.00,,,0.05,weatherlink.com 1.10,2013-11-17 04:06:00,
2013-11-16 22:21:00,69.2,64.0,29.63,SE,137,5.0,16.0,82,0.00,,,0.05,weatherlink.com 1.10,2013-11-17 04:21:00,
2013-11-16 22:36:00,69.3,64.0,29.62,SSE,156,5.0,13.0,82,0.00,,,0.05,weatherlink.com 1.10,2013-11-17 04:36:00,
2013-11-16 22:51:00,69.3,64.0,29.63,South,186,7.0,17.0,83,0.00,,,0.05,weatherlink.com 1.10,2013-11-17 04:51:00,
2013-11-16 23:06:00,69.4,64.0,29.63,South,184,7.0,18.0,83,0.00,,,0.05,weatherlink.com 1.10,2013-11-17 05:06:00,
2013-11-16 23:21:00,69.4,64.0,29.64,SSW,198,6.0,14.0,83,0.00,,,0.05,weatherlink.com 1.10,2013-11-17 05:21:00,
2013-11-16 23:36:00,69.4,64.0,29.64,SW,222,14.0,15.0,83,0.00,,,0.05,weatherlink.com 1.10,2013-11-17 05:36:00,
2013-11-16 23:51:00,69.3,64.0,29.63,ESE,123,9.0,15.0,84,0.00,,,0.05,weatherlink.com 1.10,2013-11-17 05:51:00,